createdAt,value
2024-02-14T00:00:09.949Z,18.6
2024-02-14T00:05:49.473Z,18.6
2024-02-14T00:11:28.386Z,18.6
2024-02-14T00:16:36.472Z,18.6
2024-02-14T00:21:45.138Z,18.6
2024-02-14T00:27:24.382Z,18.6
2024-02-14T00:33:04.875Z,18.6
2024-02-14T00:38:30.096Z,18.6
2024-02-14T00:43:53.150Z,18.6
2024-02-14T00:49:18.909Z,18.6
2024-02-14T00:54:58.172Z,18.6
2024-02-14T01:00:37.173Z,18.6
2024-02-14T01:06:17.224Z,18.6
2024-02-14T01:11:56.612Z,18.6
2024-02-14T01:17:20.193Z,18.6
2024-02-14T08:10:31.908Z,36.8
2024-02-14T08:15:57.572Z,36.8
2024-02-14T08:21:26.582Z,36.7
2024-02-14T08:27:08.159Z,36.6
2024-02-14T08:32:47.742Z,36.6
2024-02-14T08:38:34.861Z,36.5
2024-02-14T08:44:15.006Z,36.4
2024-02-14T08:49:59.657Z,36.4
2024-02-14T08:55:43.275Z,36.4
2024-02-14T09:01:38.060Z,36.3
2024-02-14T09:07:18.362Z,36.3
2024-02-14T09:12:57.611Z,36.2
2024-02-14T09:18:37.942Z,36.1
2024-02-14T09:24:18.772Z,36.1
2024-02-14T09:29:57.340Z,36
2024-02-14T09:35:36.467Z,36
2024-02-14T09:41:17.213Z,35.9
2024-02-14T09:47:00.659Z,35.9
2024-02-14T09:52:41.393Z,35.8
2024-02-14T09:58:20.670Z,35.8
2024-02-14T10:04:01.265Z,35.7
2024-02-14T10:09:53.574Z,35.7
2024-02-14T10:15:18.179Z,35.6
2024-02-14T10:21:00.947Z,35.6
2024-02-14T10:26:40.541Z,35.5
2024-02-14T10:32:25.565Z,35.5
2024-02-14T10:38:19.080Z,35.4
2024-02-14T10:44:01.129Z,33
2024-02-14T10:49:41.948Z,31.1
2024-02-14T10:55:20.869Z,30.3
2024-02-14T11:00:59.780Z,29.9
2024-02-14T11:06:25.878Z,29.7
2024-02-14T11:12:06.717Z,29.6
2024-02-14T11:17:45.350Z,29.5
2024-02-14T11:23:27.733Z,29.4
2024-02-14T11:29:20.476Z,29.4
2024-02-14T11:35:02.666Z,29.4
2024-02-14T11:40:41.958Z,29.3
2024-02-14T11:46:24.145Z,29.3
2024-02-14T11:52:06.535Z,29.3
2024-02-14T11:57:45.692Z,29.3
2024-02-14T12:03:26.658Z,29.3
2024-02-14T12:09:07.055Z,29.3
2024-02-14T12:14:46.639Z,29.3
2024-02-14T12:20:27.246Z,29.3
2024-02-14T12:26:06.582Z,29.3
2024-02-14T12:31:50.634Z,29.3
2024-02-14T12:37:34.100Z,29.3
2024-02-14T12:43:12.529Z,29.3
2024-02-14T12:48:52.132Z,29.3
2024-02-14T12:54:31.497Z,29.2
2024-02-14T13:00:09.983Z,29.2
2024-02-14T13:05:49.984Z,29.2
2024-02-14T13:11:30.343Z,29.2
2024-02-14T13:17:09.420Z,29.2
2024-02-14T13:22:50.825Z,29.1
2024-02-14T13:28:29.145Z,29.1
2024-02-14T13:33:53.193Z,29.1
2024-02-14T13:39:33.123Z,29.1
2024-02-14T13:45:14.502Z,29.1
2024-02-14T13:50:56.868Z,29.1
2024-02-14T13:56:36.456Z,29.1
2024-02-14T14:02:14.992Z,29.1
2024-02-14T14:08:10.643Z,29.1
2024-02-14T14:13:49.415Z,28.9
2024-02-14T14:19:33.339Z,28.8
2024-02-14T14:25:14.794Z,28.8
2024-02-14T14:30:57.110Z,28.7
2024-02-14T14:36:41.698Z,28.6
2024-02-14T14:42:23.487Z,28.6
2024-02-14T14:47:47.089Z,28.6
2024-02-14T14:53:29.968Z,28.6
2024-02-14T14:59:15.679Z,28.6
2024-02-14T15:04:55.670Z,28.6
2024-02-14T15:10:21.705Z,28.5
2024-02-14T15:16:02.857Z,28.5
2024-02-14T15:21:44.936Z,28.5
2024-02-14T15:27:25.344Z,28.4
2024-02-14T15:33:04.529Z,28.4
2024-02-14T15:38:45.077Z,28.4
2024-02-14T15:44:23.569Z,28.4
2024-02-14T15:49:48.339Z,28.4
2024-02-14T15:55:12.301Z,28.4
2024-02-14T16:00:50.882Z,28.4
2024-02-14T16:06:31.192Z,28.5
2024-02-14T16:12:09.799Z,28.4
2024-02-14T16:17:49.572Z,28.5
2024-02-14T16:23:45.327Z,28.5
2024-02-14T16:29:24.189Z,28.5
2024-02-14T16:35:04.286Z,28.5
2024-02-14T16:40:58.508Z,28.5
2024-02-14T16:46:40.356Z,28.5
2024-02-14T16:52:23.390Z,28.5
2024-02-14T16:58:05.822Z,28.1
2024-02-14T17:03:34.740Z,27.1
2024-02-14T17:09:24.560Z,25.5
2024-02-14T17:15:07.289Z,23.8
2024-02-14T17:20:32.402Z,22.9
2024-02-14T17:26:20.420Z,22.3
2024-02-14T17:31:59.122Z,22
2024-02-14T17:37:53.060Z,21.8
2024-02-14T17:43:15.757Z,21.6
2024-02-14T17:48:55.288Z,21.4
2024-02-14T17:54:34.619Z,21.3
2024-02-14T18:00:13.258Z,21.2
2024-02-14T18:11:21.767Z,21.1
2024-02-14T18:16:59.977Z,21
2024-02-14T18:22:23.934Z,20.9
2024-02-14T18:28:04.503Z,20.9
2024-02-14T18:33:46.455Z,20.9
2024-02-14T18:39:10.827Z,20.9
2024-02-14T18:44:48.958Z,20.9
2024-02-14T18:50:28.725Z,20.9
2024-02-14T18:56:07.297Z,20.9
2024-02-14T19:01:46.145Z,20.9
2024-02-14T19:07:27.614Z,20.9
2024-02-14T19:13:06.020Z,20.9
2024-02-14T19:18:58.856Z,20.9
2024-02-14T19:24:38.340Z,20.9
2024-02-14T19:30:17.654Z,20.9
